Time;durP1;ratioP1;P1;durP2;ratioP2;P2;SDS_P1;SDS_P2;PMS_P1;PMS_P2;Temp;Humidity;BMP_temperature;BMP_pressure;BME280_temperature;BME280_humidity;BME280_pressure;Samples;Min_cycle;Max_cycle;Signal;HPM_P1;HPM_P2
2023/11/20 00:00:32;;;;;;;30.48;6.03;;;12.50;99.90;;;;;;4282684;27;20046;-54
2023/11/20 00:02:34;;;;;;;28.60;6.13;;;12.60;99.90;;;;;;4264444;27;20038;-55
2023/11/20 00:04:37;;;;;;;32.88;7.13;;;12.60;99.90;;;;;;4282278;27;20367;-54
2023/11/20 00:06:39;;;;;;;30.67;6.35;;;12.60;99.90;;;;;;4282518;27;20046;-54
2023/11/20 00:08:41;;;;;;;31.08;6.00;;;12.70;99.90;;;;;;4282549;27;20680;-54
2023/11/20 00:10:46;;;;;;;24.95;5.90;;;12.70;99.90;;;;;;4282200;27;20042;-55
2023/11/20 00:12:48;;;;;;;27.45;5.93;;;12.70;99.90;;;;;;4282216;27;20060;-53
2023/11/20 00:14:50;;;;;;;32.17;7.18;;;12.60;99.90;;;;;;4282148;27;20078;-55
2023/11/20 00:16:54;;;;;;;26.83;5.32;;;12.60;99.90;;;;;;4281946;27;20117;-59
2023/11/20 00:18:56;;;;;;;34.67;6.75;;;12.60;99.90;;;;;;4282208;27;20081;-54
2023/11/20 00:20:58;;;;;;;31.90;6.70;;;12.60;99.90;;;;;;4282504;27;20042;-54
2023/11/20 00:23:00;;;;;;;27.85;6.10;;;12.60;99.90;;;;;;4282580;27;20135;-56
2023/11/20 00:25:03;;;;;;;26.80;6.03;;;12.60;99.90;;;;;;4282432;27;20038;-54
2023/11/20 00:27:05;;;;;;;25.20;5.78;;;12.60;99.90;;;;;;4281669;27;20472;-55
2023/11/20 00:29:08;;;;;;;44.25;6.55;;;12.60;99.90;;;;;;4282247;27;20046;-56
2023/11/20 00:31:13;;;;;;;30.98;6.43;;;12.50;99.90;;;;;;4281892;27;20128;-53
2023/11/20 00:33:16;;;;;;;29.40;5.95;;;12.50;99.90;;;;;;4263280;27;20046;-58
2023/11/20 00:35:18;;;;;;;28.75;6.90;;;12.60;99.90;;;;;;4282411;27;20042;-58
2023/11/20 00:37:20;;;;;;;34.67;6.07;;;12.50;99.90;;;;;;4282199;27;20117;-56
2023/11/20 00:39:22;;;;;;;27.35;5.30;;;12.50;99.90;;;;;;4281818;27;20079;-55
2023/11/20 00:41:25;;;;;;;33.40;6.72;;;12.50;99.90;;;;;;4282031;27;20038;-56
2023/11/20 00:43:27;;;;;;;26.63;6.53;;;12.40;99.90;;;;;;4281938;27;20050;-55
2023/11/20 00:45:29;;;;;;;28.75;6.20;;;12.40;99.90;;;;;;4282117;27;20050;-55
2023/11/20 00:47:31;;;;;;;26.80;5.30;;;12.40;99.90;;;;;;4281668;27;20042;-56
2023/11/20 00:49:34;;;;;;;26.90;5.78;;;12.40;99.90;;;;;;4281890;27;20446;-56
2023/11/20 00:51:36;;;;;;;29.27;6.07;;;12.40;99.90;;;;;;4281759;27;20062;-56
2023/11/20 00:53:39;;;;;;;26.52;6.13;;;12.40;99.90;;;;;;4282109;27;20042;-54
2023/11/20 00:55:41;;;;;;;29.45;5.88;;;12.50;99.90;;;;;;4281889;27;20118;-54
2023/11/20 00:57:43;;;;;;;30.30;6.05;;;12.40;99.90;;;;;;4283321;27;20095;-59
2023/11/20 00:59:45;;;;;;;29.60;6.32;;;12.40;99.90;;;;;;4282702;27;20053;-60
2023/11/20 01:01:47;;;;;;;28.15;6.38;;;12.40;99.90;;;;;;4282429;27;20072;-62
2023/11/20 01:03:49;;;;;;;26.40;5.28;;;12.50;99.90;;;;;;4282777;27;20367;-57
2023/11/20 01:05:53;;;;;;;33.75;6.30;;;12.40;99.90;;;;;;4283106;27;20145;-57
2023/11/20 01:07:55;;;;;;;31.13;6.32;;;12.50;99.90;;;;;;4283340;27;20062;-58
2023/11/20 01:09:57;;;;;;;27.02;6.03;;;12.50;99.90;;;;;;4283569;27;20102;-58
2023/11/20 01:11:59;;;;;;;33.33;5.78;;;12.50;99.90;;;;;;4282307;27;20046;-56
2023/11/20 01:14:01;;;;;;;27.30;6.00;;;12.40;99.90;;;;;;4282381;27;20050;-55
2023/11/20 01:16:05;;;;;;;30.73;6.40;;;12.40;99.90;;;;;;4263899;27;20579;-60
2023/11/20 01:18:07;;;;;;;28.17;5.35;;;12.50;99.90;;;;;;4282841;27;20049;-69
2023/11/20 01:20:10;;;;;;;27.92;6.15;;;12.50;99.90;;;;;;4282640;27;20557;-55
2023/11/20 01:22:14;;;;;;;28.58;6.65;;;12.50;99.90;;;;;;4282141;27;20038;-54
2023/11/20 01:24:16;;;;;;;31.38;5.55;;;12.50;99.90;;;;;;4282337;27;20049;-55
2023/11/20 01:26:18;;;;;;;24.52;5.13;;;12.50;99.90;;;;;;4282329;27;20050;-56
2023/11/20 01:28:20;;;;;;;25.48;5.68;;;12.50;99.90;;;;;;4282258;27;20137;-57
2023/11/20 01:30:22;;;;;;;28.48;5.80;;;12.60;99.90;;;;;;4281665;27;20048;-54
2023/11/20 01:32:24;;;;;;;31.08;6.00;;;12.50;99.90;;;;;;4281483;27;20042;-55
2023/11/20 01:34:26;;;;;;;26.52;5.75;;;12.40;99.90;;;;;;4282022;27;20042;-56
2023/11/20 01:36:28;;;;;;;23.70;4.97;;;12.40;99.90;;;;;;4282056;27;20045;-53
2023/11/20 01:38:32;;;;;;;20.17;4.65;;;12.50;99.90;;;;;;4282885;27;20052;-58
2023/11/20 01:40:34;;;;;;;28.40;6.15;;;12.50;99.90;;;;;;4285067;27;20444;-56
2023/11/20 01:42:36;;;;;;;31.00;5.10;;;12.50;99.90;;;;;;4285271;27;20042;-59
2023/11/20 01:44:38;;;;;;;29.42;5.63;;;12.60;99.90;;;;;;4285764;27;20045;-58
2023/11/20 01:46:41;;;;;;;26.52;6.28;;;12.50;99.90;;;;;;4284235;27;20120;-55
2023/11/20 01:48:45;;;;;;;24.10;5.10;;;12.50;99.90;;;;;;4284545;27;20045;-57
2023/11/20 01:50:47;;;;;;;25.90;5.95;;;12.50;99.90;;;;;;4284781;27;20121;-57
2023/11/20 01:52:50;;;;;;;32.53;5.97;;;12.40;99.90;;;;;;4284675;27;20081;-57
2023/11/20 01:54:53;;;;;;;33.75;5.90;;;12.40;99.90;;;;;;4284358;27;20118;-57
2023/11/20 01:56:56;;;;;;;24.73;6.70;;;12.30;99.90;;;;;;4284263;27;20074;-57
2023/11/20 01:59:01;;;;;;;22.95;5.43;;;12.40;99.90;;;;;;4284583;27;20038;-56
2023/11/20 02:01:03;;;;;;;;;;;12.40;99.90;;;;;;4284633;27;20068;-56
2023/11/20 02:03:06;;;;;;;30.50;5.75;;;12.40;99.90;;;;;;4284304;27;19918;-56
2023/11/20 02:05:09;;;;;;;21.20;4.90;;;12.30;99.90;;;;;;4284443;27;20046;-58
2023/11/20 02:07:11;;;;;;;25.38;4.68;;;12.40;99.90;;;;;;4284579;27;20042;-57
2023/11/20 02:09:13;;;;;;;29.17;5.65;;;12.40;99.90;;;;;;4284476;27;20098;-57
2023/11/20 02:11:17;;;;;;;23.42;5.22;;;12.30;99.90;;;;;;4284972;27;20818;-59
2023/11/20 02:13:19;;;;;;;22.08;4.63;;;12.40;99.90;;;;;;4284343;27;20050;-57
2023/11/20 02:15:21;;;;;;;25.30;5.00;;;12.40;99.90;;;;;;4284046;27;20057;-56
2023/11/20 02:17:23;;;;;;;22.83;5.70;;;12.50;99.90;;;;;;4284187;27;20511;-57
2023/11/20 02:19:25;;;;;;;27.15;5.53;;;12.50;99.90;;;;;;4284239;27;20070;-57
2023/11/20 02:21:32;;;;;;;26.98;4.90;;;12.50;99.90;;;;;;4284308;27;20066;-56
2023/11/20 02:23:34;;;;;;;25.38;5.13;;;12.40;99.90;;;;;;4284116;27;20039;-56
2023/11/20 02:25:36;;;;;;;27.10;5.43;;;12.40;99.90;;;;;;4284071;27;20090;-57
2023/11/20 02:27:53;;;;;;;26.63;5.18;;;12.40;99.90;;;;;;4284201;27;20090;-55
2023/11/20 02:29:57;;;;;;;28.75;5.35;;;12.40;99.90;;;;;;4283765;27;20064;-56
2023/11/20 02:32:04;;;;;;;26.65;5.32;;;12.40;99.90;;;;;;4283916;27;20491;-55
2023/11/20 02:34:11;;;;;;;27.10;5.47;;;12.50;99.90;;;;;;4283967;27;20121;-54
2023/11/20 02:36:24;;;;;;;29.52;4.82;;;12.50;99.90;;;;;;4283958;27;20497;-55
2023/11/20 02:38:26;;;;;;;28.08;5.25;;;12.50;99.90;;;;;;4265102;27;20097;-53
2023/11/20 02:40:28;;;;;;;28.17;4.57;;;12.50;99.90;;;;;;4283815;27;20122;-54
2023/11/20 02:42:30;;;;;;;25.42;4.88;;;12.60;99.90;;;;;;4283827;27;20046;-54
2023/11/20 02:44:35;;;;;;;21.80;4.88;;;12.50;99.90;;;;;;4283235;27;20042;-54
2023/11/20 02:46:38;;;;;;;27.52;5.55;;;12.50;99.90;;;;;;4274897;27;20042;-55
2023/11/20 02:48:40;;;;;;;23.90;6.00;;;12.60;99.90;;;;;;4266377;27;20046;-57
2023/11/20 02:50:42;;;;;;;24.23;4.88;;;12.50;99.90;;;;;;4266863;27;20039;-54
2023/11/20 02:52:45;;;;;;;25.23;5.05;;;12.60;99.90;;;;;;4266515;27;20053;-55
2023/11/20 02:54:48;;;;;;;22.90;4.53;;;12.60;99.90;;;;;;4266181;27;20047;-52
2023/11/20 02:56:50;;;;;;;28.40;6.07;;;12.50;99.90;;;;;;4266453;27;20111;-60
2023/11/20 02:58:52;;;;;;;23.52;5.38;;;12.50;99.90;;;;;;4266388;27;20050;-54
2023/11/20 03:00:54;;;;;;;18.92;4.13;;;12.50;99.90;;;;;;4248040;27;20404;-54
2023/11/20 03:02:57;;;;;;;27.40;4.32;;;12.50;99.90;;;;;;4266366;27;20049;-56
2023/11/20 03:04:59;;;;;;;24.42;4.70;;;12.50;99.90;;;;;;4266366;27;20053;-56
2023/11/20 03:07:01;;;;;;;25.42;4.90;;;12.50;99.90;;;;;;4265898;27;20133;-56
2023/11/20 03:09:04;;;;;;;20.25;4.28;;;12.50;99.90;;;;;;4248362;27;20051;-56
2023/11/20 03:11:07;;;;;;;21.38;4.90;;;12.50;99.90;;;;;;4247846;27;20385;-56
2023/11/20 03:13:14;;;;;;;22.05;4.63;;;12.50;99.90;;;;;;4265322;27;20050;-57
2023/11/20 03:15:20;;;;;;;20.42;5.35;;;12.60;99.90;;;;;;4265771;27;20158;-56
2023/11/20 03:17:22;;;;;;;16.73;4.35;;;12.50;99.90;;;;;;4265695;27;20431;-55
2023/11/20 03:19:25;;;;;;;25.45;5.05;;;12.50;99.90;;;;;;4265750;27;20046;-55
2023/11/20 03:21:27;;;;;;;21.60;4.50;;;12.50;99.90;;;;;;4247723;27;20100;-56
2023/11/20 03:23:29;;;;;;;18.67;4.63;;;12.40;99.90;;;;;;4265731;27;20038;-56
2023/11/20 03:25:31;;;;;;;22.75;5.10;;;12.40;99.90;;;;;;4265785;27;20122;-56
2023/11/20 03:27:33;;;;;;;27.15;5.43;;;12.50;99.90;;;;;;4265861;27;20054;-57
2023/11/20 03:29:36;;;;;;;21.35;4.82;;;12.50;99.90;;;;;;4265929;27;20053;-56
2023/11/20 03:31:38;;;;;;;22.67;4.43;;;12.50;99.90;;;;;;4265480;27;20095;-57
2023/11/20 03:33:40;;;;;;;24.33;5.47;;;12.50;99.90;;;;;;4265439;27;20536;-56
2023/11/20 03:35:44;;;;;;;21.13;4.53;;;12.50;99.90;;;;;;4265814;27;20117;-56
2023/11/20 03:37:46;;;;;;;20.77;4.28;;;12.50;99.90;;;;;;4265278;27;20042;-56
2023/11/20 03:39:48;;;;;;;24.02;4.15;;;12.60;99.90;;;;;;4265567;27;20453;-57
2023/11/20 03:41:50;;;;;;;21.83;4.15;;;12.60;99.90;;;;;;4265047;27;20058;-57
2023/11/20 03:43:52;;;;;;;27.25;5.32;;;12.70;99.90;;;;;;4265426;27;20046;-57
2023/11/20 03:45:55;;;;;;;23.90;4.13;;;12.70;99.90;;;;;;4265223;27;20049;-57
2023/11/20 03:47:57;;;;;;;15.20;3.55;;;12.80;99.90;;;;;;4266127;27;20126;-57
2023/11/20 03:49:59;;;;;;;21.05;4.47;;;12.80;99.90;;;;;;4265507;27;20053;-56
2023/11/20 03:52:03;;;;;;;25.23;5.25;;;12.80;99.90;;;;;;4265269;27;20085;-58
2023/11/20 03:54:07;;;;;;;18.27;4.20;;;12.70;99.90;;;;;;4265354;27;20043;-58
2023/11/20 03:56:10;;;;;;;20.23;3.65;;;12.80;99.90;;;;;;4265016;27;20556;-57
2023/11/20 03:58:12;;;;;;;19.25;5.10;;;12.80;99.90;;;;;;4265723;27;20049;-58
2023/11/20 04:00:15;;;;;;;17.63;4.68;;;12.70;99.90;;;;;;4264687;27;20050;-57
2023/11/20 04:02:17;;;;;;;21.90;4.28;;;12.70;99.90;;;;;;4264831;27;20049;-56
2023/11/20 04:04:19;;;;;;;23.60;4.32;;;12.80;99.90;;;;;;4265049;27;20420;-57
2023/11/20 04:06:21;;;;;;;25.55;4.22;;;12.80;99.90;;;;;;4265722;27;20046;-58
2023/11/20 04:08:24;;;;;;;22.25;5.30;;;12.70;99.90;;;;;;4265467;27;20047;-57
2023/11/20 04:10:26;;;;;;;18.83;4.15;;;12.70;99.90;;;;;;4264975;27;20438;-56
2023/11/20 04:12:28;;;;;;;22.00;4.32;;;12.80;99.90;;;;;;4264885;27;20049;-57
2023/11/20 04:14:31;;;;;;;26.05;4.88;;;12.70;99.90;;;;;;4265155;27;20133;-57
2023/11/20 04:16:36;;;;;;;16.52;3.90;;;12.80;99.90;;;;;;4265270;27;20259;-57
2023/11/20 04:18:39;;;;;;;18.77;4.25;;;12.80;99.90;;;;;;4265198;27;20043;-57
2023/11/20 04:20:42;;;;;;;22.10;4.47;;;12.80;99.90;;;;;;4264955;27;20046;-56
2023/11/20 04:22:45;;;;;;;22.52;4.30;;;12.80;99.90;;;;;;4246851;27;20043;-54
2023/11/20 04:24:48;;;;;;;17.27;3.80;;;12.80;99.90;;;;;;4264688;27;20053;-54
2023/11/20 04:26:50;;;;;;;20.55;4.63;;;12.90;99.90;;;;;;4265405;27;20417;-56
2023/11/20 04:28:52;;;;;;;21.30;5.03;;;13.00;99.90;;;;;;4265577;27;20054;-54
2023/11/20 04:30:55;;;;;;;23.70;4.90;;;13.00;99.90;;;;;;4265115;27;20165;-54
2023/11/20 04:32:57;;;;;;;18.77;4.25;;;12.90;99.90;;;;;;4265142;27;20446;-56
2023/11/20 04:34:59;;;;;;;14.63;3.95;;;12.90;99.90;;;;;;4264953;27;20046;-56
2023/11/20 04:37:01;;;;;;;17.27;4.68;;;12.90;99.90;;;;;;4264725;27;20050;-58
2023/11/20 04:39:03;;;;;;;20.88;4.43;;;12.80;99.90;;;;;;4264255;27;20055;-57
2023/11/20 04:41:07;;;;;;;17.25;4.13;;;12.80;99.90;;;;;;4264891;27;20047;-55
2023/11/20 04:43:10;;;;;;;18.67;4.57;;;12.90;99.90;;;;;;4264779;27;20588;-56
2023/11/20 04:45:12;;;;;;;25.98;5.55;;;12.80;99.90;;;;;;4265115;27;20038;-53
2023/11/20 04:47:14;;;;;;;17.90;3.92;;;12.80;99.90;;;;;;4264908;27;20039;-54
2023/11/20 04:49:16;;;;;;;19.95;3.97;;;12.80;99.90;;;;;;4266121;27;20530;-58
2023/11/20 04:51:19;;;;;;;20.00;4.25;;;12.80;99.90;;;;;;4265512;27;20054;-55
2023/11/20 04:53:24;;;;;;;16.58;3.97;;;12.80;99.90;;;;;;4265564;27;20042;-65
2023/11/20 04:55:27;;;;;;;18.33;4.15;;;12.80;99.90;;;;;;4266222;27;20046;-60
2023/11/20 04:57:31;;;;;;;20.17;4.00;;;12.80;99.90;;;;;;4266407;27;20423;-57
2023/11/20 04:59:33;;;;;;;19.77;3.70;;;12.80;99.90;;;;;;4266252;27;20050;-61
2023/11/20 05:01:36;;;;;;;18.67;4.25;;;12.70;99.90;;;;;;4267010;27;20103;-59
2023/11/20 05:03:38;;;;;;;22.77;4.38;;;12.70;99.90;;;;;;4267209;27;20061;-61
2023/11/20 05:05:40;;;;;;;18.65;4.57;;;12.80;99.90;;;;;;4266776;27;20115;-57
2023/11/20 05:07:42;;;;;;;16.80;3.92;;;12.80;99.90;;;;;;4266426;27;20504;-59
2023/11/20 05:09:44;;;;;;;19.40;4.53;;;12.80;99.90;;;;;;4265592;27;20042;-59
2023/11/20 05:11:46;;;;;;;23.65;4.65;;;12.80;99.90;;;;;;4266964;27;20085;-63
2023/11/20 05:13:50;;;;;;;17.55;4.45;;;12.70;99.90;;;;;;4270770;27;20053;-57
2023/11/20 05:15:52;;;;;;;22.73;4.95;;;12.70;99.90;;;;;;4270231;27;20038;-58
2023/11/20 05:17:54;;;;;;;20.48;4.40;;;12.70;99.90;;;;;;4270436;27;20042;-58
2023/11/20 05:19:56;;;;;;;21.98;5.00;;;12.70;99.90;;;;;;4269335;27;20066;-57
2023/11/20 05:21:58;;;;;;;23.33;4.43;;;12.60;99.90;;;;;;4267845;27;20039;-55
2023/11/20 05:24:00;;;;;;;24.15;4.47;;;12.60;99.90;;;;;;4268085;27;20082;-59
2023/11/20 05:26:03;;;;;;;24.05;4.93;;;12.60;99.90;;;;;;4268113;27;20043;-58
2023/11/20 05:28:05;;;;;;;23.98;4.88;;;12.70;99.90;;;;;;4267643;27;20084;-57
2023/11/20 05:30:11;;;;;;;15.85;3.97;;;12.60;99.90;;;;;;4267729;27;20042;-57
2023/11/20 05:32:13;;;;;;;28.48;4.72;;;12.50;99.90;;;;;;4267876;27;20555;-55
2023/11/20 05:34:15;;;;;;;21.45;5.25;;;12.50;99.90;;;;;;4267722;27;20047;-57
2023/11/20 05:36:17;;;;;;;16.85;3.80;;;12.50;99.90;;;;;;4267754;27;20038;-55
2023/11/20 05:38:19;;;;;;;23.13;5.45;;;12.60;99.90;;;;;;4267147;27;20055;-56
2023/11/20 05:40:21;;;;;;;21.23;5.05;;;12.50;99.90;;;;;;4267377;27;20074;-54
2023/11/20 05:42:23;;;;;;;23.02;4.70;;;12.60;99.90;;;;;;4267636;27;20091;-56
2023/11/20 05:44:25;;;;;;;23.70;5.10;;;12.50;99.90;;;;;;4267854;27;20038;-56
2023/11/20 05:46:29;;;;;;;22.67;4.18;;;12.60;99.90;;;;;;4267530;27;20039;-58
2023/11/20 05:48:31;;;;;;;21.90;4.60;;;12.60;99.90;;;;;;4249127;27;20096;-57
2023/11/20 05:50:33;;;;;;;17.30;4.07;;;12.60;99.90;;;;;;4267222;27;20038;-56
2023/11/20 05:52:36;;;;;;;26.58;4.80;;;12.50;99.90;;;;;;4266861;27;20050;-57
2023/11/20 05:54:38;;;;;;;20.83;4.40;;;12.50;99.90;;;;;;4267192;27;20078;-56
2023/11/20 05:56:41;;;;;;;23.27;4.22;;;12.40;99.90;;;;;;4267506;27;20505;-56
2023/11/20 05:58:43;;;;;;;20.73;4.53;;;12.40;99.90;;;;;;4267232;27;20121;-56
2023/11/20 06:00:45;;;;;;;29.05;4.80;;;12.40;99.90;;;;;;4267347;27;20469;-57
2023/11/20 06:02:49;;;;;;;22.77;4.32;;;12.40;99.90;;;;;;4267502;27;20070;-57
2023/11/20 06:04:51;;;;;;;19.42;4.60;;;12.50;99.90;;;;;;4248746;27;20047;-57
2023/11/20 06:06:53;;;;;;;18.38;4.07;;;12.50;99.90;;;;;;4266869;27;20126;-57
2023/11/20 06:08:56;;;;;;;24.92;5.03;;;12.40;99.90;;;;;;4267551;27;20568;-57
2023/11/20 06:10:58;;;;;;;30.02;5.70;;;12.40;99.90;;;;;;4268113;27;20045;-60
2023/11/20 06:13:01;;;;;;;27.48;5.45;;;12.40;99.90;;;;;;4266951;27;20442;-57
2023/11/20 06:15:04;;;;;;;20.42;4.57;;;12.40;99.90;;;;;;4267276;27;20536;-56
2023/11/20 06:17:09;;;;;;;14.32;3.13;;;12.40;99.90;;;;;;4266920;27;20039;-58
2023/11/20 06:19:12;;;;;;;18.13;4.10;;;12.50;99.90;;;;;;4267282;27;20051;-56
2023/11/20 06:21:14;;;;;;;25.63;5.05;;;12.50;99.90;;;;;;4267598;27;20047;-56
2023/11/20 06:23:18;;;;;;;23.85;4.28;;;12.50;99.90;;;;;;4266732;27;20090;-56
2023/11/20 06:25:20;;;;;;;27.20;4.78;;;12.50;99.90;;;;;;4266360;27;20456;-56
2023/11/20 06:27:23;;;;;;;24.08;4.35;;;12.50;99.90;;;;;;4266807;27;20411;-56
2023/11/20 06:29:25;;;;;;;26.60;4.82;;;12.50;99.90;;;;;;4266693;27;20047;-57
2023/11/20 06:31:27;;;;;;;16.50;4.00;;;12.50;99.90;;;;;;4266702;27;20047;-57
2023/11/20 06:33:30;;;;;;;19.08;4.40;;;12.50;99.90;;;;;;4266458;27;20050;-57
2023/11/20 06:35:37;;;;;;;20.55;5.15;;;12.50;99.90;;;;;;4266406;27;20136;-58
2023/11/20 06:37:39;;;;;;;13.98;3.83;;;12.60;99.90;;;;;;4266712;27;20043;-56
2023/11/20 06:39:41;;;;;;;21.83;4.68;;;12.60;99.90;;;;;;4267076;27;20050;-57
2023/11/20 06:41:43;;;;;;;17.63;3.95;;;12.50;99.90;;;;;;4266536;27;20156;-58
2023/11/20 06:43:45;;;;;;;22.10;4.60;;;12.40;99.90;;;;;;4248424;27;20118;-56
2023/11/20 06:45:48;;;;;;;23.50;4.10;;;12.50;99.90;;;;;;4266603;27;20126;-56
2023/11/20 06:47:50;;;;;;;18.52;4.18;;;12.40;99.90;;;;;;4266743;27;20043;-58
2023/11/20 06:49:52;;;;;;;19.17;4.32;;;12.40;99.90;;;;;;4266076;27;20077;-57
2023/11/20 06:51:55;;;;;;;19.52;4.43;;;12.50;99.90;;;;;;4266372;27;20039;-56
2023/11/20 06:53:58;;;;;;;21.13;4.57;;;12.50;99.90;;;;;;4266164;27;20491;-57
2023/11/20 06:56:00;;;;;;;17.58;3.78;;;12.40;99.90;;;;;;4266498;27;20042;-56
2023/11/20 06:58:02;;;;;;;23.25;4.35;;;12.40;99.90;;;;;;4266871;27;20047;-58
2023/11/20 07:00:11;;;;;;;25.23;5.28;;;12.40;99.90;;;;;;4266712;27;20038;-57
2023/11/20 07:02:14;;;;;;;29.77;5.25;;;12.40;99.90;;;;;;4266434;27;20103;-57
2023/11/20 07:04:18;;;;;;;19.63;4.78;;;12.30;99.90;;;;;;4266049;27;20049;-57
2023/11/20 07:06:20;;;;;;;25.50;5.45;;;12.30;99.90;;;;;;4266181;27;20095;-57
2023/11/20 07:08:27;;;;;;;21.73;4.05;;;12.30;99.90;;;;;;4266554;27;20034;-57
2023/11/20 07:10:29;;;;;;;21.40;4.40;;;12.30;99.90;;;;;;4247690;27;20045;-56
2023/11/20 07:12:31;;;;;;;24.05;4.68;;;12.30;99.90;;;;;;4266180;27;20042;-56
2023/11/20 07:14:33;;;;;;;19.60;4.65;;;12.30;99.90;;;;;;4266046;27;20058;-60
2023/11/20 07:16:36;;;;;;;24.90;4.22;;;12.40;99.90;;;;;;4266317;27;20042;-58
2023/11/20 07:18:39;;;;;;;20.70;3.90;;;12.40;99.90;;;;;;4266040;27;20379;-56
2023/11/20 07:20:42;;;;;;;21.92;4.30;;;12.50;99.90;;;;;;4247569;27;20058;-57
2023/11/20 07:22:45;;;;;;;17.92;4.82;;;12.50;99.90;;;;;;4266119;27;20051;-56
2023/11/20 07:24:49;;;;;;;21.88;5.28;;;12.50;99.90;;;;;;4266013;27;20073;-56
2023/11/20 07:26:51;;;;;;;25.42;4.32;;;12.50;99.90;;;;;;4265788;27;20050;-56
2023/11/20 07:28:53;;;;;;;21.75;4.22;;;12.50;99.90;;;;;;4265709;27;20038;-57
2023/11/20 07:30:55;;;;;;;17.13;3.40;;;12.50;99.90;;;;;;4266071;27;20043;-55
2023/11/20 07:32:58;;;;;;;19.13;4.15;;;12.50;99.90;;;;;;4247009;27;20043;-56
2023/11/20 07:35:10;;;;;;;22.20;4.65;;;12.50;99.90;;;;;;4266023;27;20091;-57
2023/11/20 07:37:12;;;;;;;23.95;4.57;;;12.50;99.90;;;;;;4265735;27;20042;-57
2023/11/20 07:39:14;;;;;;;21.67;5.47;;;12.50;99.90;;;;;;4265562;27;20058;-57
2023/11/20 07:41:22;;;;;;;24.08;4.60;;;12.50;99.90;;;;;;4265641;27;20045;-57
2023/11/20 07:43:27;;;;;;;25.65;5.22;;;12.40;99.90;;;;;;4265584;27;20038;-56
2023/11/20 07:45:29;;;;;;;18.60;4.00;;;12.40;99.90;;;;;;4265511;27;20043;-57
2023/11/20 07:47:31;;;;;;;17.33;4.43;;;12.50;99.90;;;;;;4265044;27;20049;-57
2023/11/20 07:49:33;;;;;;;16.95;3.92;;;12.50;99.90;;;;;;4265517;27;20133;-57
2023/11/20 07:51:36;;;;;;;21.63;4.72;;;12.50;99.90;;;;;;4265419;27;20407;-56
2023/11/20 07:53:38;;;;;;;17.95;4.18;;;12.50;99.90;;;;;;4265739;27;20173;-57
2023/11/20 07:55:40;;;;;;;21.67;4.43;;;12.50;99.90;;;;;;4265860;27;20057;-57
2023/11/20 07:57:44;;;;;;;18.58;4.47;;;12.50;99.90;;;;;;4246923;27;20045;-56
2023/11/20 07:59:47;;;;;;;19.10;3.75;;;12.50;99.90;;;;;;4265247;27;20047;-57
2023/11/20 08:01:49;;;;;;;19.48;3.97;;;12.50;99.90;;;;;;4265623;27;20142;-57
2023/11/20 08:03:51;;;;;;;15.30;4.03;;;12.50;99.90;;;;;;4265479;27;20070;-56
2023/11/20 08:05:53;;;;;;;22.45;4.47;;;12.60;99.90;;;;;;4265424;27;20050;-57
2023/11/20 08:08:00;;;;;;;16.75;3.95;;;12.70;99.90;;;;;;4265143;27;20066;-57
2023/11/20 08:10:03;;;;;;;14.68;3.80;;;12.70;99.90;;;;;;4265281;27;20118;-57
2023/11/20 08:12:08;;;;;;;15.77;3.83;;;12.70;99.90;;;;;;4265238;27;20050;-57
2023/11/20 08:14:14;;;;;;;17.42;4.03;;;12.70;99.90;;;;;;4265140;27;20043;-57
2023/11/20 08:16:16;;;;;;;20.05;4.32;;;12.70;99.90;;;;;;4264950;27;20050;-57
2023/11/20 08:18:18;;;;;;;20.38;3.92;;;12.60;99.90;;;;;;4264614;27;20047;-56
2023/11/20 08:20:20;;;;;;;20.60;4.40;;;12.70;99.90;;;;;;4265268;27;20122;-57
2023/11/20 08:22:22;;;;;;;22.30;4.65;;;12.70;99.90;;;;;;4265096;27;20050;-56
2023/11/20 08:24:25;;;;;;;15.45;3.92;;;12.70;99.90;;;;;;4264953;27;20134;-57
2023/11/20 08:26:27;;;;;;;22.13;4.40;;;12.70;99.90;;;;;;4265017;27;20144;-57
2023/11/20 08:28:29;;;;;;;19.52;3.88;;;12.70;99.90;;;;;;4264776;27;20091;-58
2023/11/20 08:30:34;;;;;;;18.48;4.53;;;12.70;99.90;;;;;;4265232;27;20053;-58
2023/11/20 08:32:36;;;;;;;;;;;12.70;99.90;;;;;;4265423;27;20047;-57
2023/11/20 08:34:38;;;;;;;19.42;4.22;;;12.70;99.90;;;;;;4264596;27;19948;-55
2023/11/20 08:36:42;;;;;;;21.23;4.32;;;12.70;99.90;;;;;;4264731;27;20111;-56
2023/11/20 08:38:44;;;;;;;19.25;3.85;;;12.80;99.90;;;;;;4264625;27;20054;-56
2023/11/20 08:40:46;;;;;;;21.63;4.75;;;12.90;99.90;;;;;;4264726;27;20495;-57
2023/11/20 08:42:48;;;;;;;15.40;3.53;;;12.90;99.90;;;;;;4264769;27;20125;-55
2023/11/20 08:44:50;;;;;;;15.02;3.40;;;13.00;99.90;;;;;;4264670;27;20046;-55
2023/11/20 08:46:54;;;;;;;18.23;3.67;;;13.10;99.90;;;;;;4264308;27;20038;-57
2023/11/20 08:48:56;;;;;;;20.75;3.53;;;13.10;99.90;;;;;;4266066;27;20038;-59
2023/11/20 08:50:58;;;;;;;13.73;3.60;;;13.00;99.90;;;;;;4265684;27;20050;-58
2023/11/20 08:53:00;;;;;;;15.93;3.60;;;13.00;99.90;;;;;;4264776;27;20067;-56
2023/11/20 08:55:03;;;;;;;12.30;2.90;;;13.00;99.90;;;;;;4265002;27;20057;-55
2023/11/20 08:57:05;;;;;;;17.92;3.45;;;12.90;99.90;;;;;;4264887;27;20043;-58
2023/11/20 08:59:08;;;;;;;18.85;4.20;;;12.80;99.90;;;;;;4264378;27;20043;-57
2023/11/20 09:01:10;;;;;;;15.45;3.78;;;12.80;99.90;;;;;;4264219;27;20177;-59
2023/11/20 09:03:14;;;;;;;18.63;3.40;;;12.80;99.90;;;;;;4264866;27;20499;-61
2023/11/20 09:05:16;;;;;;;17.85;4.22;;;12.90;99.90;;;;;;4264962;27;20042;-55
2023/11/20 09:07:19;;;;;;;18.25;3.88;;;12.80;99.90;;;;;;4264856;27;20050;-61
2023/11/20 09:09:21;;;;;;;13.07;3.13;;;12.90;99.90;;;;;;4265620;27;20165;-60
2023/11/20 09:11:24;;;;;;;13.73;3.58;;;12.80;99.90;;;;;;4265070;27;20265;-56
2023/11/20 09:13:26;;;;;;;17.88;3.72;;;12.90;99.90;;;;;;4264571;27;20043;-55
2023/11/20 09:15:28;;;;;;;20.23;4.20;;;13.00;99.90;;;;;;4264246;27;20499;-54
2023/11/20 09:17:30;;;;;;;18.92;3.85;;;13.00;99.90;;;;;;4264654;27;20070;-54
2023/11/20 09:19:34;;;;;;;16.40;3.70;;;13.00;99.90;;;;;;4264911;27;20054;-57
2023/11/20 09:21:36;;;;;;;22.27;4.22;;;13.00;99.90;;;;;;4246438;27;20054;-59
2023/11/20 09:23:38;;;;;;;15.70;3.65;;;13.10;99.90;;;;;;4264872;27;20047;-56
2023/11/20 09:25:42;;;;;;;16.13;3.65;;;13.00;99.90;;;;;;4264899;27;20053;-55
2023/11/20 09:27:44;;;;;;;23.42;4.05;;;13.10;99.90;;;;;;4264758;27;20051;-56
2023/11/20 09:29:46;;;;;;;19.98;4.32;;;13.10;99.90;;;;;;4265166;27;20043;-63
2023/11/20 09:31:48;;;;;;;22.73;3.58;;;13.10;99.90;;;;;;4264929;27;20054;-63
2023/11/20 09:33:50;;;;;;;14.50;3.05;;;13.10;99.90;;;;;;4265433;27;20472;-57
2023/11/20 09:35:54;;;;;;;16.55;3.63;;;13.10;99.90;;;;;;4264511;27;20076;-57
2023/11/20 09:37:56;;;;;;;18.08;3.53;;;13.10;99.90;;;;;;4264502;27;20429;-55
2023/11/20 09:40:00;;;;;;;21.38;4.25;;;13.10;99.90;;;;;;4264296;27;20053;-57
2023/11/20 09:42:02;;;;;;;17.23;2.97;;;13.20;99.90;;;;;;4264468;27;20488;-57
2023/11/20 09:44:06;;;;;;;14.77;3.13;;;13.30;99.90;;;;;;4264034;27;20046;-55
2023/11/20 09:46:11;;;;;;;13.68;3.63;;;13.30;99.90;;;;;;4264314;27;20446;-55
2023/11/20 09:48:15;;;;;;;17.45;3.47;;;13.40;99.90;;;;;;4264810;27;20099;-54
2023/11/20 09:50:18;;;;;;;12.52;2.92;;;13.30;99.90;;;;;;4265042;27;20445;-55
2023/11/20 09:52:24;;;;;;;18.60;3.05;;;13.40;99.90;;;;;;4265013;27;20152;-55
2023/11/20 09:54:26;;;;;;;14.68;3.53;;;13.50;99.90;;;;;;4264363;27;20050;-55
2023/11/20 09:56:28;;;;;;;22.40;4.25;;;13.60;99.90;;;;;;4264410;27;20043;-60
2023/11/20 09:58:30;;;;;;;13.65;3.05;;;13.60;99.80;;;;;;4264015;27;20049;-56
2023/11/20 10:00:32;;;;;;;12.88;3.00;;;13.50;99.50;;;;;;4266935;27;20468;-60
2023/11/20 10:02:35;;;;;;;12.45;3.10;;;13.50;99.20;;;;;;4267736;27;20050;-56
2023/11/20 10:04:39;;;;;;;16.15;3.38;;;13.40;99.20;;;;;;4267198;27;20051;-55
2023/11/20 10:06:44;;;;;;;10.82;2.83;;;13.40;99.20;;;;;;4268150;27;20054;-54
2023/11/20 10:08:48;;;;;;;17.77;3.35;;;13.40;99.00;;;;;;4267206;27;20043;-56
2023/11/20 10:10:51;;;;;;;13.45;3.70;;;13.40;99.10;;;;;;4266983;27;20039;-56
2023/11/20 10:12:57;;;;;;;16.67;3.83;;;13.50;99.00;;;;;;4266686;27;20043;-55
2023/11/20 10:15:00;;;;;;;17.42;3.65;;;13.60;99.30;;;;;;4267125;27;20042;-55
2023/11/20 10:17:03;;;;;;;16.70;3.40;;;13.70;98.70;;;;;;4267935;27;20042;-55
2023/11/20 10:19:07;;;;;;;12.30;3.25;;;13.70;98.60;;;;;;4267836;27;20035;-55
2023/11/20 10:21:11;;;;;;;16.42;3.15;;;13.70;98.10;;;;;;4267269;27;20437;-55
2023/11/20 10:23:13;;;;;;;15.45;2.97;;;13.70;98.20;;;;;;4248906;27;20048;-57
2023/11/20 10:25:17;;;;;;;20.63;3.88;;;13.80;98.20;;;;;;4267422;27;20055;-57
2023/11/20 10:27:20;;;;;;;16.90;3.90;;;13.90;97.90;;;;;;4266667;27;20061;-55
2023/11/20 10:29:22;;;;;;;18.88;4.05;;;14.00;97.60;;;;;;4248623;27;20039;-55
2023/11/20 10:31:27;;;;;;;18.25;3.45;;;14.00;97.40;;;;;;4267066;27;20083;-55